sensor_id;sensor_type;location;lat;lon;timestamp;pressure;altitude;pressure_sealevel;temperature;humidity
72024;BME280;59889;50.700;5.440;2024-02-04T00:02:05;100981.76;;;20.17;33.43
72024;BME280;59889;50.700;5.440;2024-02-04T00:04:30;100980.17;;;20.44;33.42
72024;BME280;59889;50.700;5.440;2024-02-04T00:06:55;100984.70;;;20.55;33.29
72024;BME280;59889;50.700;5.440;2024-02-04T00:09:20;100985.52;;;20.44;33.40
72024;BME280;59889;50.700;5.440;2024-02-04T00:11:46;100986.22;;;20.50;33.35
72024;BME280;59889;50.700;5.440;2024-02-04T00:14:11;100985.77;;;20.48;33.37
72024;BME280;59889;50.700;5.440;2024-02-04T00:16:36;100986.01;;;20.25;33.37
72024;BME280;59889;50.700;5.440;2024-02-04T00:19:01;100985.55;;;20.29;33.33
72024;BME280;59889;50.700;5.440;2024-02-04T00:21:27;100987.48;;;20.48;33.35
72024;BME280;59889;50.700;5.440;2024-02-04T00:23:51;100992.81;;;20.56;33.28
72024;BME280;59889;50.700;5.440;2024-02-04T00:26:16;100995.87;;;20.65;33.42
72024;BME280;59889;50.700;5.440;2024-02-04T00:28:41;100991.58;;;20.30;33.30
72024;BME280;59889;50.700;5.440;2024-02-04T00:31:06;100991.65;;;20.45;33.41
72024;BME280;59889;50.700;5.440;2024-02-04T00:33:31;100989.25;;;20.71;33.39
72024;BME280;59889;50.700;5.440;2024-02-04T00:35:56;100987.24;;;20.21;33.40
72024;BME280;59889;50.700;5.440;2024-02-04T00:38:21;100986.76;;;20.24;33.37
72024;BME280;59889;50.700;5.440;2024-02-04T00:40:46;100988.24;;;20.78;33.29
72024;BME280;59889;50.700;5.440;2024-02-04T00:43:11;100992.64;;;20.45;33.40
72024;BME280;59889;50.700;5.440;2024-02-04T00:45:36;100995.36;;;20.55;33.29
72024;BME280;59889;50.700;5.440;2024-02-04T00:48:02;100994.81;;;20.80;33.26
72024;BME280;59889;50.700;5.440;2024-02-04T00:50:27;100994.43;;;20.41;33.42
72024;BME280;59889;50.700;5.440;2024-02-04T00:52:52;100992.38;;;20.50;33.35
72024;BME280;59889;50.700;5.440;2024-02-04T00:55:17;100991.68;;;20.73;33.37
72024;BME280;59889;50.700;5.440;2024-02-04T00:57:42;100989.60;;;20.21;33.39
72024;BME280;59889;50.700;5.440;2024-02-04T01:00:08;100985.67;;;20.52;33.33
72024;BME280;59889;50.700;5.440;2024-02-04T01:02:32;100984.89;;;20.74;33.33
72024;BME280;59889;50.700;5.440;2024-02-04T01:04:57;100990.35;;;20.78;33.30
72024;BME280;59889;50.700;5.440;2024-02-04T01:07:22;100988.12;;;20.48;33.36
72024;BME280;59889;50.700;5.440;2024-02-04T01:09:47;100992.45;;;20.27;33.33
72024;BME280;59889;50.700;5.440;2024-02-04T01:12:12;100991.35;;;20.54;33.29
72024;BME280;59889;50.700;5.440;2024-02-04T01:14:37;100989.79;;;20.78;33.26
72024;BME280;59889;50.700;5.440;2024-02-04T01:17:03;100990.77;;;20.54;33.26
72024;BME280;59889;50.700;5.440;2024-02-04T01:19:27;100988.30;;;20.28;33.26
72024;BME280;59889;50.700;5.440;2024-02-04T01:21:52;100992.66;;;20.72;33.30
72024;BME280;59889;50.700;5.440;2024-02-04T01:24:18;100996.33;;;20.72;33.30
72024;BME280;59889;50.700;5.440;2024-02-04T01:26:43;101000.00;;;20.49;33.30
72024;BME280;59889;50.700;5.440;2024-02-04T01:29:08;101002.02;;;20.24;33.31
72024;BME280;59889;50.700;5.440;2024-02-04T01:31:33;100997.11;;;20.28;33.27
72024;BME280;59889;50.700;5.440;2024-02-04T01:33:58;100997.00;;;20.43;33.38
72024;BME280;59889;50.700;5.440;2024-02-04T01:36:24;100993.86;;;20.75;33.27
72024;BME280;59889;50.700;5.440;2024-02-04T01:38:48;100987.88;;;20.23;33.31
72024;BME280;59889;50.700;5.440;2024-02-04T01:41:13;100980.77;;;20.54;33.24
72024;BME280;59889;50.700;5.440;2024-02-04T01:43:38;100979.14;;;20.48;33.30
72024;BME280;59889;50.700;5.440;2024-02-04T01:46:03;100975.19;;;20.50;33.30
72024;BME280;59889;50.700;5.440;2024-02-04T01:48:28;100974.26;;;20.55;33.23
72024;BME280;59889;50.700;5.440;2024-02-04T01:50:54;100971.36;;;20.77;33.24
72024;BME280;59889;50.700;5.440;2024-02-04T01:53:21;100969.00;;;20.47;33.30
72024;BME280;59889;50.700;5.440;2024-02-04T01:55:44;100964.32;;;20.41;33.37
72024;BME280;59889;50.700;5.440;2024-02-04T01:58:09;100963.88;;;20.43;33.37
72024;BME280;59889;50.700;5.440;2024-02-04T02:00:34;100961.13;;;20.65;33.37
72024;BME280;59889;50.700;5.440;2024-02-04T02:02:59;100960.86;;;20.35;33.42
72024;BME280;59889;50.700;5.440;2024-02-04T02:05:24;100959.07;;;20.58;33.45
72024;BME280;59889;50.700;5.440;2024-02-04T02:07:49;100959.93;;;20.24;33.30
72024;BME280;59889;50.700;5.440;2024-02-04T02:10:14;100955.59;;;20.45;33.35
72024;BME280;59889;50.700;5.440;2024-02-04T02:12:42;100953.82;;;20.65;33.37
72024;BME280;59889;50.700;5.440;2024-02-04T02:15:10;100955.56;;;20.61;33.42
72024;BME280;59889;50.700;5.440;2024-02-04T02:17:35;100962.42;;;20.22;33.34
72024;BME280;59889;50.700;5.440;2024-02-04T02:19:58;100966.55;;;20.44;33.37
72024;BME280;59889;50.700;5.440;2024-02-04T02:22:28;100964.80;;;20.47;33.33
72024;BME280;59889;50.700;5.440;2024-02-04T02:24:46;100961.42;;;20.47;33.33
72024;BME280;59889;50.700;5.440;2024-02-04T02:27:09;100970.66;;;20.42;33.36
72024;BME280;59889;50.700;5.440;2024-02-04T02:29:35;100984.41;;;20.62;33.41
72024;BME280;59889;50.700;5.440;2024-02-04T02:32:00;100979.60;;;20.74;33.28
72024;BME280;59889;50.700;5.440;2024-02-04T02:34:25;100978.04;;;20.28;33.27
72024;BME280;59889;50.700;5.440;2024-02-04T02:36:52;100976.04;;;20.53;33.26
72024;BME280;59889;50.700;5.440;2024-02-04T02:39:18;100973.71;;;20.77;33.26
72024;BME280;59889;50.700;5.440;2024-02-04T02:41:41;100968.78;;;20.52;33.26
72024;BME280;59889;50.700;5.440;2024-02-04T02:44:05;100966.81;;;20.64;33.41
72024;BME280;59889;50.700;5.440;2024-02-04T02:46:30;100971.49;;;20.50;33.31
72024;BME280;59889;50.700;5.440;2024-02-04T02:48:55;100971.29;;;20.22;33.34
72024;BME280;59889;50.700;5.440;2024-02-04T02:51:20;100969.75;;;20.42;33.37
72024;BME280;59889;50.700;5.440;2024-02-04T02:53:45;100967.57;;;20.69;33.35
72024;BME280;59889;50.700;5.440;2024-02-04T02:56:12;100966.82;;;20.22;33.36
72024;BME280;59889;50.700;5.440;2024-02-04T02:58:35;100959.05;;;20.46;33.35
72024;BME280;59889;50.700;5.440;2024-02-04T03:01:01;100957.10;;;20.68;33.37
72024;BME280;59889;50.700;5.440;2024-02-04T03:03:25;100961.47;;;20.15;33.44
72024;BME280;59889;50.700;5.440;2024-02-04T03:05:50;100966.12;;;20.48;33.34
72024;BME280;59889;50.700;5.440;2024-02-04T03:08:15;100964.50;;;20.44;33.37
72024;BME280;59889;50.700;5.440;2024-02-04T03:10:41;100968.13;;;20.37;33.47
72024;BME280;59889;50.700;5.440;2024-02-04T03:13:06;100975.45;;;20.22;33.37
72024;BME280;59889;50.700;5.440;2024-02-04T03:15:31;100970.32;;;20.51;33.31
72024;BME280;59889;50.700;5.440;2024-02-04T03:17:56;100970.01;;;20.44;33.38
72024;BME280;59889;50.700;5.440;2024-02-04T03:20:21;100970.75;;;20.39;33.44
72024;BME280;59889;50.700;5.440;2024-02-04T03:22:48;100965.17;;;20.44;33.40
72024;BME280;59889;50.700;5.440;2024-02-04T03:25:12;100963.67;;;20.40;33.40
72024;BME280;59889;50.700;5.440;2024-02-04T03:27:36;100959.74;;;20.15;33.44
72024;BME280;59889;50.700;5.440;2024-02-04T03:30:01;100961.34;;;20.29;33.58
72024;BME280;59889;50.700;5.440;2024-02-04T03:32:26;100965.94;;;20.28;33.58
72024;BME280;59889;50.700;5.440;2024-02-04T03:34:51;100964.64;;;20.06;33.58
72024;BME280;59889;50.700;5.440;2024-02-04T03:37:16;100965.21;;;20.11;33.51
72024;BME280;59889;50.700;5.440;2024-02-04T03:39:41;100969.48;;;20.38;33.48
72024;BME280;59889;50.700;5.440;2024-02-04T03:42:06;100971.06;;;20.38;33.46
72024;BME280;59889;50.700;5.440;2024-02-04T03:44:32;100963.51;;;20.39;33.48
72024;BME280;59889;50.700;5.440;2024-02-04T03:46:57;100966.90;;;20.56;33.54
72024;BME280;59889;50.700;5.440;2024-02-04T03:49:22;100962.58;;;20.35;33.53
72024;BME280;59889;50.700;5.440;2024-02-04T03:51:47;100956.82;;;20.51;33.59
72024;BME280;59889;50.700;5.440;2024-02-04T03:54:12;100957.17;;;20.28;33.59
72024;BME280;59889;50.700;5.440;2024-02-04T03:56:37;100954.55;;;20.33;33.56
72024;BME280;59889;50.700;5.440;2024-02-04T03:59:02;100951.25;;;20.34;33.55
72024;BME280;59889;50.700;5.440;2024-02-04T04:01:27;100949.49;;;20.37;33.51
72024;BME280;59889;50.700;5.440;2024-02-04T04:03:52;100955.39;;;20.26;33.60
72024;BME280;59889;50.700;5.440;2024-02-04T04:06:17;100953.97;;;20.25;33.64
72024;BME280;59889;50.700;5.440;2024-02-04T04:08:42;100948.53;;;20.35;33.54
72024;BME280;59889;50.700;5.440;2024-02-04T04:11:10;100942.59;;;20.56;33.54
72024;BME280;59889;50.700;5.440;2024-02-04T04:13:33;100947.74;;;20.09;33.56
72024;BME280;59889;50.700;5.440;2024-02-04T04:15:57;100944.42;;;20.55;33.55
72024;BME280;59889;50.700;5.440;2024-02-04T04:18:22;100940.81;;;20.27;33.63
72024;BME280;59889;50.700;5.440;2024-02-04T04:20:48;100940.58;;;20.36;33.52
72024;BME280;59889;50.700;5.440;2024-02-04T04:23:13;100948.41;;;20.50;33.63
72024;BME280;59889;50.700;5.440;2024-02-04T04:25:38;100951.62;;;20.22;33.69
72024;BME280;59889;50.700;5.440;2024-02-04T04:28:03;100959.22;;;20.54;33.61
72024;BME280;59889;50.700;5.440;2024-02-04T04:30:28;100962.38;;;20.29;33.61
72024;BME280;59889;50.700;5.440;2024-02-04T04:32:53;100952.94;;;20.26;33.65
72024;BME280;59889;50.700;5.440;2024-02-04T04:35:18;100950.24;;;20.28;33.63
72024;BME280;59889;50.700;5.440;2024-02-04T04:37:43;100959.16;;;20.32;33.59
72024;BME280;59889;50.700;5.440;2024-02-04T04:40:09;100955.29;;;20.23;33.68
72024;BME280;59889;50.700;5.440;2024-02-04T04:42:33;100952.89;;;20.30;33.60
72024;BME280;59889;50.700;5.440;2024-02-04T04:44:58;100955.01;;;20.34;33.57
72024;BME280;59889;50.700;5.440;2024-02-04T04:47:23;100954.74;;;19.96;33.70
72024;BME280;59889;50.700;5.440;2024-02-04T04:49:49;100957.73;;;20.35;33.57
72024;BME280;59889;50.700;5.440;2024-02-04T04:52:13;100960.07;;;20.24;33.66
72024;BME280;59889;50.700;5.440;2024-02-04T04:54:39;100958.31;;;20.61;33.53
72024;BME280;59889;50.700;5.440;2024-02-04T04:57:04;100958.66;;;20.56;33.60
72024;BME280;59889;50.700;5.440;2024-02-04T04:59:29;100962.07;;;20.47;33.71
72024;BME280;59889;50.700;5.440;2024-02-04T05:01:55;100954.71;;;20.47;33.68
72024;BME280;59889;50.700;5.440;2024-02-04T05:04:19;100951.36;;;20.20;33.72
72024;BME280;59889;50.700;5.440;2024-02-04T05:06:44;100951.99;;;20.37;33.85
72024;BME280;59889;50.700;5.440;2024-02-04T05:09:09;100948.07;;;20.13;33.82
72024;BME280;59889;50.700;5.440;2024-02-04T05:11:34;100953.58;;;20.41;33.79
72024;BME280;59889;50.700;5.440;2024-02-04T05:13:59;100949.63;;;20.22;33.73
72024;BME280;59889;50.700;5.440;2024-02-04T05:16:24;100945.37;;;20.45;33.74
72024;BME280;59889;50.700;5.440;2024-02-04T05:18:49;100936.87;;;20.14;33.80
72024;BME280;59889;50.700;5.440;2024-02-04T05:21:14;100930.24;;;20.12;33.85
72024;BME280;59889;50.700;5.440;2024-02-04T05:23:40;100925.55;;;20.16;33.77
72024;BME280;59889;50.700;5.440;2024-02-04T05:26:05;100926.79;;;20.48;33.70
72024;BME280;59889;50.700;5.440;2024-02-04T05:28:30;100921.97;;;20.31;33.63
72024;BME280;59889;50.700;5.440;2024-02-04T05:30:55;100921.40;;;20.13;33.85
72024;BME280;59889;50.700;5.440;2024-02-04T05:33:20;100924.19;;;20.54;33.62
72024;BME280;59889;50.700;5.440;2024-02-04T05:35:45;100915.65;;;20.05;33.62
72024;BME280;59889;50.700;5.440;2024-02-04T05:38:10;100911.77;;;20.47;33.70
72024;BME280;59889;50.700;5.440;2024-02-04T05:40:35;100908.58;;;20.56;33.59
72024;BME280;59889;50.700;5.440;2024-02-04T05:43:00;100906.58;;;20.26;33.67
72024;BME280;59889;50.700;5.440;2024-02-04T05:45:25;100904.75;;;20.46;33.71
72024;BME280;59889;50.700;5.440;2024-02-04T05:47:50;100905.43;;;20.44;33.74
72024;BME280;59889;50.700;5.440;2024-02-04T05:50:15;100904.91;;;20.12;33.85
72024;BME280;59889;50.700;5.440;2024-02-04T05:52:40;100906.91;;;20.49;33.71
72024;BME280;59889;50.700;5.440;2024-02-04T05:55:06;100910.24;;;20.24;33.69
72024;BME280;59889;50.700;5.440;2024-02-04T05:57:30;100906.62;;;20.52;33.66
72024;BME280;59889;50.700;5.440;2024-02-04T05:59:55;100900.51;;;20.31;33.59
72024;BME280;59889;50.700;5.440;2024-02-04T06:02:21;100904.64;;;20.48;33.71
72024;BME280;59889;50.700;5.440;2024-02-04T06:04:46;100911.79;;;20.19;33.75
72024;BME280;59889;50.700;5.440;2024-02-04T06:07:11;100914.72;;;20.21;33.74
72024;BME280;59889;50.700;5.440;2024-02-04T06:09:37;100918.98;;;19.96;33.74
72024;BME280;59889;50.700;5.440;2024-02-04T06:12:02;100917.37;;;19.95;33.78
72024;BME280;59889;50.700;5.440;2024-02-04T06:14:27;100906.28;;;20.32;33.61
72024;BME280;59889;50.700;5.440;2024-02-04T06:16:51;100908.85;;;20.47;33.71
72024;BME280;59889;50.700;5.440;2024-02-04T06:19:17;100909.95;;;20.54;33.64
72024;BME280;59889;50.700;5.440;2024-02-04T06:21:41;100911.92;;;20.46;33.72
72024;BME280;59889;50.700;5.440;2024-02-04T06:24:06;100910.42;;;20.09;33.62
72024;BME280;59889;50.700;5.440;2024-02-04T06:26:31;100907.33;;;20.34;33.62
72024;BME280;59889;50.700;5.440;2024-02-04T06:28:56;100911.09;;;20.29;33.65
72024;BME280;59889;50.700;5.440;2024-02-04T06:31:21;100912.54;;;20.11;33.60
72024;BME280;59889;50.700;5.440;2024-02-04T06:33:46;100908.74;;;20.35;34.32
72024;BME280;59889;50.700;5.440;2024-02-04T06:36:12;100916.09;;;20.46;34.42
72024;BME280;59889;50.700;5.440;2024-02-04T06:38:37;100916.67;;;20.35;34.49
72024;BME280;59889;50.700;5.440;2024-02-04T06:41:02;100926.09;;;20.33;34.44
72024;BME280;59889;50.700;5.440;2024-02-04T06:43:32;100924.92;;;20.10;34.31
72024;BME280;59889;50.700;5.440;2024-02-04T06:45:52;100918.37;;;20.08;34.29
72024;BME280;59889;50.700;5.440;2024-02-04T06:48:19;100914.33;;;20.30;34.26
72024;BME280;59889;50.700;5.440;2024-02-04T06:50:42;100917.45;;;19.99;34.29
72024;BME280;59889;50.700;5.440;2024-02-04T06:53:07;100922.34;;;20.27;34.19
72024;BME280;59889;50.700;5.440;2024-02-04T06:55:32;100915.57;;;20.02;34.17
72024;BME280;59889;50.700;5.440;2024-02-04T06:57:57;100920.81;;;20.23;34.14
72024;BME280;59889;50.700;5.440;2024-02-04T07:00:23;100927.56;;;20.28;34.05
72024;BME280;59889;50.700;5.440;2024-02-04T07:02:48;100927.55;;;20.21;34.13
72024;BME280;59889;50.700;5.440;2024-02-04T07:05:14;100925.18;;;20.52;34.02
72024;BME280;59889;50.700;5.440;2024-02-04T07:07:39;100921.78;;;19.89;34.16
72024;BME280;59889;50.700;5.440;2024-02-04T07:10:09;100920.12;;;19.88;34.17
72024;BME280;59889;50.700;5.440;2024-02-04T07:12:28;100920.69;;;20.14;34.10
72024;BME280;59889;50.700;5.440;2024-02-04T07:14:54;100919.64;;;20.12;34.11
72024;BME280;59889;50.700;5.440;2024-02-04T07:17:23;100925.05;;;20.06;34.16
72024;BME280;59889;50.700;5.440;2024-02-04T07:19:44;100918.39;;;19.82;34.13
72024;BME280;59889;50.700;5.440;2024-02-04T07:22:09;100916.48;;;20.28;34.14
72024;BME280;59889;50.700;5.440;2024-02-04T07:24:34;100919.85;;;20.06;34.11
72024;BME280;59889;50.700;5.440;2024-02-04T07:26:59;100919.50;;;20.17;34.24
72024;BME280;59889;50.700;5.440;2024-02-04T07:29:24;100910.99;;;20.03;34.12
72024;BME280;59889;50.700;5.440;2024-02-04T07:31:49;100923.46;;;19.93;34.23
72024;BME280;59889;50.700;5.440;2024-02-04T07:34:14;100918.62;;;20.04;34.10
72024;BME280;59889;50.700;5.440;2024-02-04T07:36:40;100925.05;;;20.05;34.06
72024;BME280;59889;50.700;5.440;2024-02-04T07:39:04;100923.31;;;19.91;34.20
72024;BME280;59889;50.700;5.440;2024-02-04T07:41:29;100909.30;;;19.93;34.15
72024;BME280;59889;50.700;5.440;2024-02-04T07:43:54;100910.38;;;20.11;34.20
72024;BME280;59889;50.700;5.440;2024-02-04T07:46:19;100912.41;;;19.82;34.26
72024;BME280;59889;50.700;5.440;2024-02-04T07:48:44;100910.05;;;19.88;34.17
72024;BME280;59889;50.700;5.440;2024-02-04T07:51:10;100906.62;;;20.06;34.23
72024;BME280;59889;50.700;5.440;2024-02-04T07:53:35;100920.67;;;19.79;34.24
72024;BME280;59889;50.700;5.440;2024-02-04T07:56:00;100925.68;;;19.79;34.23
72024;BME280;59889;50.700;5.440;2024-02-04T07:58:25;100926.46;;;19.81;34.18
72024;BME280;59889;50.700;5.440;2024-02-04T08:00:51;100924.86;;;19.81;34.16
72024;BME280;59889;50.700;5.440;2024-02-04T08:03:15;100927.05;;;20.02;34.20
72024;BME280;59889;50.700;5.440;2024-02-04T08:05:40;100924.56;;;19.82;34.16
72024;BME280;59889;50.700;5.440;2024-02-04T08:08:05;100923.36;;;19.82;34.15
72024;BME280;59889;50.700;5.440;2024-02-04T08:10:30;100924.93;;;19.83;34.15
72024;BME280;59889;50.700;5.440;2024-02-04T08:12:55;100921.27;;;19.84;34.12
72024;BME280;59889;50.700;5.440;2024-02-04T08:15:21;100924.96;;;19.87;34.11
72024;BME280;59889;50.700;5.440;2024-02-04T08:17:46;100916.18;;;19.88;34.08
72024;BME280;59889;50.700;5.440;2024-02-04T08:20:11;100916.74;;;19.85;34.13
72024;BME280;59889;50.700;5.440;2024-02-04T08:22:36;100916.79;;;19.87;34.09
72024;BME280;59889;50.700;5.440;2024-02-04T08:25:01;100913.95;;;19.86;34.12
72024;BME280;59889;50.700;5.440;2024-02-04T08:27:27;100913.44;;;19.80;34.19
72024;BME280;59889;50.700;5.440;2024-02-04T08:29:52;100912.04;;;19.78;34.22
72024;BME280;59889;50.700;5.440;2024-02-04T08:32:16;100907.38;;;19.80;34.20
72024;BME280;59889;50.700;5.440;2024-02-04T08:34:41;100903.22;;;19.73;34.30
72024;BME280;59889;50.700;5.440;2024-02-04T08:37:06;100902.44;;;19.73;34.29
72024;BME280;59889;50.700;5.440;2024-02-04T08:39:31;100892.86;;;19.69;34.47
72024;BME280;59889;50.700;5.440;2024-02-04T08:41:58;100892.59;;;19.91;34.21
72024;BME280;59889;50.700;5.440;2024-02-04T08:44:21;100893.69;;;20.35;34.28
72024;BME280;59889;50.700;5.440;2024-02-04T08:46:46;100891.43;;;19.99;34.15
72024;BME280;59889;50.700;5.440;2024-02-04T08:49:11;100896.71;;;20.03;34.10
72024;BME280;59889;50.700;5.440;2024-02-04T08:51:36;100891.11;;;19.95;34.22
72024;BME280;59889;50.700;5.440;2024-02-04T08:54:02;100893.05;;;20.03;34.14
72024;BME280;59889;50.700;5.440;2024-02-04T08:56:27;100893.15;;;19.75;34.20
72024;BME280;59889;50.700;5.440;2024-02-04T08:58:52;100882.96;;;20.01;34.18
72024;BME280;59889;50.700;5.440;2024-02-04T09:01:17;100872.74;;;20.00;34.24
72024;BME280;59889;50.700;5.440;2024-02-04T09:03:42;100877.37;;;20.11;34.22
72024;BME280;59889;50.700;5.440;2024-02-04T09:06:07;100880.07;;;19.98;34.35
72024;BME280;59889;50.700;5.440;2024-02-04T09:08:33;100886.79;;;20.02;34.31
72024;BME280;59889;50.700;5.440;2024-02-04T09:10:57;100900.36;;;20.06;34.35
72024;BME280;59889;50.700;5.440;2024-02-04T09:13:23;100910.01;;;20.04;34.41
72024;BME280;59889;50.700;5.440;2024-02-04T09:15:49;100915.56;;;20.11;34.41
72024;BME280;59889;50.700;5.440;2024-02-04T09:18:12;100923.77;;;20.09;34.60
72024;BME280;59889;50.700;5.440;2024-02-04T09:20:38;100921.92;;;20.10;34.70
72024;BME280;59889;50.700;5.440;2024-02-04T09:23:03;100916.21;;;20.09;34.74
72024;BME280;59889;50.700;5.440;2024-02-04T09:25:27;100911.84;;;20.14;34.76
72024;BME280;59889;50.700;5.440;2024-02-04T09:27:53;100914.52;;;20.13;34.78
72024;BME280;59889;50.700;5.440;2024-02-04T09:30:18;100915.68;;;20.15;34.73
72024;BME280;59889;50.700;5.440;2024-02-04T09:32:44;100917.26;;;19.95;34.76
72024;BME280;59889;50.700;5.440;2024-02-04T09:35:08;100913.84;;;19.77;34.79
72024;BME280;59889;50.700;5.440;2024-02-04T09:37:33;100911.83;;;20.27;34.83
72024;BME280;59889;50.700;5.440;2024-02-04T09:39:58;100911.29;;;19.80;34.84
72024;BME280;59889;50.700;5.440;2024-02-04T09:42:24;100916.98;;;20.04;34.88
72024;BME280;59889;50.700;5.440;2024-02-04T09:44:49;100912.93;;;20.26;34.88
72024;BME280;59889;50.700;5.440;2024-02-04T09:47:13;100907.97;;;19.91;35.06
72024;BME280;59889;50.700;5.440;2024-02-04T09:49:38;100894.50;;;20.19;34.99
72024;BME280;59889;50.700;5.440;2024-02-04T09:52:07;100892.95;;;20.21;34.97
72024;BME280;59889;50.700;5.440;2024-02-04T09:54:29;100890.65;;;20.20;34.96
72024;BME280;59889;50.700;5.440;2024-02-04T09:56:54;100887.96;;;20.22;34.96
72024;BME280;59889;50.700;5.440;2024-02-04T09:59:19;100889.54;;;20.27;34.88
72024;BME280;59889;50.700;5.440;2024-02-04T10:01:44;100886.12;;;20.19;34.97
72024;BME280;59889;50.700;5.440;2024-02-04T10:04:09;100891.24;;;20.12;35.04
72024;BME280;59889;50.700;5.440;2024-02-04T10:06:34;100900.96;;;20.16;34.98
72024;BME280;59889;50.700;5.440;2024-02-04T10:08:59;100897.71;;;20.16;34.98
72024;BME280;59889;50.700;5.440;2024-02-04T10:11:24;100895.65;;;20.24;34.91
72024;BME280;59889;50.700;5.440;2024-02-04T10:13:49;100897.55;;;20.24;34.89
72024;BME280;59889;50.700;5.440;2024-02-04T10:16:15;100894.92;;;20.17;34.95
72024;BME280;59889;50.700;5.440;2024-02-04T10:18:41;100892.53;;;20.20;34.93
72024;BME280;59889;50.700;5.440;2024-02-04T10:21:04;100903.51;;;20.13;35.01
72024;BME280;59889;50.700;5.440;2024-02-04T10:23:29;100905.40;;;20.14;34.98
72024;BME280;59889;50.700;5.440;2024-02-04T10:25:58;100913.50;;;20.11;35.01
72024;BME280;59889;50.700;5.440;2024-02-04T10:28:19;100912.28;;;20.09;35.01
72024;BME280;59889;50.700;5.440;2024-02-04T10:30:44;100919.35;;;20.15;34.93
72024;BME280;59889;50.700;5.440;2024-02-04T10:33:10;100925.71;;;19.83;35.05
72024;BME280;59889;50.700;5.440;2024-02-04T10:35:35;100922.65;;;20.14;35.00
72024;BME280;59889;50.700;5.440;2024-02-04T10:38:00;100923.28;;;20.11;35.00
72024;BME280;59889;50.700;5.440;2024-02-04T10:40:25;100930.83;;;20.14;34.93
72024;BME280;59889;50.700;5.440;2024-02-04T10:42:50;100930.75;;;20.20;34.89
72024;BME280;59889;50.700;5.440;2024-02-04T10:45:17;100929.07;;;19.88;34.96
72024;BME280;59889;50.700;5.440;2024-02-04T10:47:40;100928.66;;;20.21;34.86
72024;BME280;59889;50.700;5.440;2024-02-04T10:50:06;100923.29;;;19.97;34.86
72024;BME280;59889;50.700;5.440;2024-02-04T10:52:35;100922.19;;;20.13;34.93
72024;BME280;59889;50.700;5.440;2024-02-04T10:54:55;100914.49;;;20.18;34.88
72024;BME280;59889;50.700;5.440;2024-02-04T10:57:22;100909.19;;;20.21;34.84
72024;BME280;59889;50.700;5.440;2024-02-04T10:59:46;100907.10;;;20.14;34.91
72024;BME280;59889;50.700;5.440;2024-02-04T11:02:11;100916.17;;;20.40;34.91
72024;BME280;59889;50.700;5.440;2024-02-04T11:04:36;100917.77;;;20.17;34.89
72024;BME280;59889;50.700;5.440;2024-02-04T11:07:01;100918.39;;;20.16;34.89
72024;BME280;59889;50.700;5.440;2024-02-04T11:09:26;100908.68;;;19.90;34.90
72024;BME280;59889;50.700;5.440;2024-02-04T11:11:51;100910.26;;;20.16;34.88
72024;BME280;59889;50.700;5.440;2024-02-04T11:14:17;100908.93;;;20.16;34.86
72024;BME280;59889;50.700;5.440;2024-02-04T11:16:50;100913.67;;;20.14;34.87
72024;BME280;59889;50.700;5.440;2024-02-04T11:19:15;100916.10;;;20.18;34.83
72024;BME280;59889;50.700;5.440;2024-02-04T11:21:45;100920.72;;;19.94;34.82
72024;BME280;59889;50.700;5.440;2024-02-04T11:24:08;100912.87;;;19.99;34.80
72024;BME280;59889;50.700;5.440;2024-02-04T11:26:22;100896.98;;;20.00;34.75
72024;BME280;59889;50.700;5.440;2024-02-04T11:28:47;100896.18;;;20.26;34.74
72024;BME280;59889;50.700;5.440;2024-02-04T11:31:14;100893.58;;;20.17;34.85
72024;BME280;59889;50.700;5.440;2024-02-04T11:33:37;100895.58;;;20.21;34.80
72024;BME280;59889;50.700;5.440;2024-02-04T11:36:04;100892.24;;;20.18;34.87
72024;BME280;59889;50.700;5.440;2024-02-04T11:38:31;100889.14;;;20.20;34.84
72024;BME280;59889;50.700;5.440;2024-02-04T11:40:52;100890.02;;;20.20;34.85
72024;BME280;59889;50.700;5.440;2024-02-04T11:43:17;100882.77;;;20.25;34.78
72024;BME280;59889;50.700;5.440;2024-02-04T11:45:43;100880.10;;;20.17;34.86
72024;BME280;59889;50.700;5.440;2024-02-04T11:48:08;100878.57;;;20.16;34.90
72024;BME280;59889;50.700;5.440;2024-02-04T11:50:33;100870.83;;;19.96;34.84
72024;BME280;59889;50.700;5.440;2024-02-04T11:53:05;100861.74;;;20.20;34.82
72024;BME280;59889;50.700;5.440;2024-02-04T11:55:23;100865.31;;;20.19;34.84
72024;BME280;59889;50.700;5.440;2024-02-04T11:57:48;100866.97;;;20.15;34.87
72024;BME280;59889;50.700;5.440;2024-02-04T12:00:15;100864.26;;;19.91;34.88
72024;BME280;59889;50.700;5.440;2024-02-04T12:02:38;100852.50;;;19.92;34.85
72024;BME280;59889;50.700;5.440;2024-02-04T12:05:04;100849.67;;;20.08;34.91
72024;BME280;59889;50.700;5.440;2024-02-04T12:07:28;100853.22;;;20.12;34.91
72024;BME280;59889;50.700;5.440;2024-02-04T12:09:55;100854.99;;;19.87;34.91
72024;BME280;59889;50.700;5.440;2024-02-04T12:12:19;100854.44;;;19.91;34.87
72024;BME280;59889;50.700;5.440;2024-02-04T12:14:45;100852.47;;;20.19;34.84
72024;BME280;59889;50.700;5.440;2024-02-04T12:17:09;100854.48;;;20.09;34.95
72024;BME280;59889;50.700;5.440;2024-02-04T12:19:34;100854.57;;;20.12;34.90
72024;BME280;59889;50.700;5.440;2024-02-04T12:22:00;100855.43;;;20.17;34.85
72024;BME280;59889;50.700;5.440;2024-02-04T12:24:24;100861.55;;;20.14;34.86
72024;BME280;59889;50.700;5.440;2024-02-04T12:26:49;100859.58;;;20.08;34.94
72024;BME280;59889;50.700;5.440;2024-02-04T12:29:14;100854.43;;;20.14;34.87
72024;BME280;59889;50.700;5.440;2024-02-04T12:31:39;100849.63;;;20.14;34.89
72024;BME280;59889;50.700;5.440;2024-02-04T12:34:04;100839.93;;;19.87;34.89
72024;BME280;59889;50.700;5.440;2024-02-04T12:36:30;100834.83;;;20.13;34.89
72024;BME280;59889;50.700;5.440;2024-02-04T12:38:55;100842.25;;;20.16;34.86